createdAt,value
2018-07-23T00:00:16.395Z,14.80
2018-07-23T00:02:45.303Z,16.70
2018-07-23T00:05:14.303Z,15.57
2018-07-23T00:07:42.860Z,17.43
2018-07-23T00:10:11.890Z,15.40
2018-07-23T00:12:40.551Z,17.53
2018-07-23T00:15:09.993Z,16.90
2018-07-23T00:17:38.971Z,17.17
2018-07-23T00:20:07.511Z,18.37
2018-07-23T00:22:36.514Z,17.43
2018-07-23T00:25:05.493Z,19.10
2018-07-23T00:27:34.471Z,19.80
2018-07-23T00:30:03.494Z,20.17
2018-07-23T00:32:32.711Z,19.33
2018-07-23T00:35:01.713Z,18.43
2018-07-23T00:37:30.661Z,18.87
2018-07-23T00:39:59.628Z,21.63
2018-07-23T00:42:28.554Z,20.67
2018-07-23T00:44:57.526Z,21.27
2018-07-23T00:47:26.451Z,19.77
2018-07-23T00:49:55.435Z,19.77
2018-07-23T00:52:24.452Z,18.60
2018-07-23T00:54:53.373Z,21.63
2018-07-23T00:57:22.413Z,21.90
2018-07-23T00:59:51.354Z,20.30
2018-07-23T01:02:20.413Z,21.37
2018-07-23T01:04:49.366Z,19.43
2018-07-23T01:07:18.331Z,19.67
2018-07-23T01:09:46.883Z,20.90
2018-07-23T01:12:27.112Z,19.87
2018-07-23T01:14:55.991Z,17.67
2018-07-23T01:17:24.941Z,20.07
2018-07-23T01:19:54.737Z,21.87
2018-07-23T01:22:24.902Z,21.80
2018-07-23T01:24:54.687Z,20.67
2018-07-23T01:27:23.572Z,20.80
2018-07-23T01:29:52.590Z,22.97
2018-07-23T01:32:21.672Z,21.93
2018-07-23T01:34:50.422Z,21.50
2018-07-23T01:37:19.689Z,22.00
2018-07-23T01:39:48.571Z,22.57
2018-07-23T01:42:17.458Z,22.53
2018-07-23T01:44:46.422Z,22.97
2018-07-23T01:47:15.410Z,22.63
2018-07-23T01:49:43.877Z,20.70
2018-07-23T01:52:12.786Z,22.90
2018-07-23T01:54:41.670Z,22.13
2018-07-23T01:57:10.632Z,21.03
2018-07-23T01:59:39.540Z,20.60
2018-07-23T02:02:08.479Z,21.57
2018-07-23T02:04:38.574Z,22.97
2018-07-23T02:07:08.170Z,21.87
2018-07-23T02:09:37.110Z,23.03
2018-07-23T02:12:06.152Z,22.63
2018-07-23T02:14:35.103Z,21.07
2018-07-23T02:17:04.016Z,23.40
2018-07-23T02:19:33.070Z,23.87
2018-07-23T02:22:02.003Z,24.47
2018-07-23T02:24:31.065Z,23.77
2018-07-23T02:27:00.076Z,23.73
2018-07-23T02:29:29.028Z,24.80
2018-07-23T02:31:57.529Z,24.97
2018-07-23T02:34:26.454Z,24.70
2018-07-23T02:36:55.428Z,25.40
2018-07-23T02:39:24.339Z,24.17
2018-07-23T02:41:53.351Z,25.77
2018-07-23T02:44:22.311Z,23.00
2018-07-23T02:46:51.312Z,25.50
2018-07-23T02:49:21.009Z,28.03
2018-07-23T02:51:49.953Z,26.33
2018-07-23T02:54:18.933Z,25.90
2018-07-23T02:56:48.006Z,25.73
2018-07-23T02:59:16.986Z,23.50
2018-07-23T03:01:45.932Z,23.53
2018-07-23T03:04:14.843Z,24.13
2018-07-23T03:06:45.101Z,25.57
2018-07-23T03:09:14.103Z,20.80
2018-07-23T03:11:43.179Z,23.87
2018-07-23T03:14:12.513Z,23.93
2018-07-23T03:16:41.446Z,23.40
2018-07-23T03:19:09.963Z,23.57
2018-07-23T03:21:39.016Z,23.30
2018-07-23T03:24:07.968Z,22.87
2018-07-23T03:26:36.989Z,22.60
2018-07-23T03:29:06.026Z,22.50
2018-07-23T03:31:35.071Z,21.77
2018-07-23T03:34:03.963Z,22.97
2018-07-23T03:36:32.931Z,20.77
2018-07-23T03:39:01.981Z,24.47
2018-07-23T03:41:32.016Z,21.60
2018-07-23T03:44:01.012Z,22.17
2018-07-23T03:46:29.990Z,23.70
2018-07-23T03:48:58.974Z,23.27
2018-07-23T03:51:27.458Z,23.20
2018-07-23T03:53:55.984Z,22.60
2018-07-23T03:56:24.939Z,21.87
2018-07-23T03:58:53.898Z,21.67
2018-07-23T04:01:22.847Z,22.10
2018-07-23T04:03:51.819Z,22.07
2018-07-23T04:06:20.786Z,20.07
2018-07-23T04:08:49.446Z,21.53
2018-07-23T04:11:18.448Z,20.17
2018-07-23T04:13:48.506Z,22.13
2018-07-23T04:16:17.389Z,23.73
2018-07-23T04:18:46.496Z,21.87
2018-07-23T04:21:15.523Z,22.33
2018-07-23T04:23:44.551Z,23.57
2018-07-23T04:26:13.602Z,21.63
2018-07-23T04:28:42.555Z,23.03
2018-07-23T04:31:11.474Z,22.87
2018-07-23T04:33:40.490Z,20.73
2018-07-23T04:36:09.455Z,22.53
2018-07-23T04:38:38.446Z,20.23
2018-07-23T04:41:07.312Z,20.13
2018-07-23T04:43:36.382Z,20.57
2018-07-23T04:46:05.588Z,19.37
2018-07-23T04:48:35.194Z,20.30
2018-07-23T04:51:04.159Z,22.43
2018-07-23T04:53:33.110Z,20.17
2018-07-23T04:56:02.531Z,19.03
2018-07-23T04:58:31.512Z,19.10
2018-07-23T05:01:00.531Z,18.50
2018-07-23T05:03:29.532Z,20.27
2018-07-23T05:05:58.470Z,18.17
2018-07-23T05:08:27.487Z,15.00
2018-07-23T05:10:56.477Z,14.13
2018-07-23T05:13:25.508Z,14.07
2018-07-23T05:15:54.622Z,14.60
2018-07-23T05:18:23.549Z,12.53
2018-07-23T05:20:52.086Z,12.67
2018-07-23T05:23:21.121Z,14.10
2018-07-23T05:25:49.609Z,14.50
2018-07-23T05:28:18.622Z,14.63
2018-07-23T05:30:47.639Z,13.77
2018-07-23T05:33:16.714Z,15.37
2018-07-23T05:35:45.638Z,14.40
2018-07-23T05:38:14.611Z,15.20
2018-07-23T05:40:43.576Z,16.40
2018-07-23T05:43:12.571Z,14.77
2018-07-23T05:45:41.683Z,16.47
2018-07-23T05:48:10.670Z,14.17
2018-07-23T05:50:39.714Z,15.30
2018-07-23T05:53:08.832Z,13.93
2018-07-23T05:55:37.798Z,16.20
2018-07-23T05:58:06.767Z,14.27
2018-07-23T06:00:35.750Z,16.13
2018-07-23T06:03:04.655Z,16.37
2018-07-23T06:05:33.614Z,16.40
2018-07-23T06:08:02.834Z,15.83
2018-07-23T06:10:32.051Z,18.17
2018-07-23T06:13:01.096Z,17.63
2018-07-23T06:15:29.627Z,17.37
2018-07-23T06:17:58.614Z,16.37
2018-07-23T06:20:27.622Z,17.83
2018-07-23T06:22:56.593Z,17.17
2018-07-23T06:25:25.553Z,18.23
2018-07-23T06:27:54.890Z,18.77
2018-07-23T06:30:23.938Z,18.83
2018-07-23T06:32:52.855Z,20.00
2018-07-23T06:35:21.851Z,20.57
2018-07-23T06:37:50.891Z,20.87
2018-07-23T06:40:20.004Z,18.93
2018-07-23T06:42:48.960Z,19.70
2018-07-23T06:45:17.864Z,19.13
2018-07-23T06:47:46.849Z,19.57
2018-07-23T06:50:15.833Z,18.87
2018-07-23T06:52:44.804Z,17.80
2018-07-23T06:55:13.861Z,18.73
2018-07-23T06:57:42.790Z,16.90
2018-07-23T07:00:11.893Z,18.50
2018-07-23T07:02:41.750Z,17.87
2018-07-23T07:05:10.679Z,17.17
2018-07-23T07:07:39.263Z,18.60
2018-07-23T07:10:08.376Z,16.63
2018-07-23T07:12:37.482Z,18.33
2018-07-23T07:15:06.613Z,16.70
2018-07-23T07:17:35.467Z,16.73
2018-07-23T07:20:04.434Z,15.83
2018-07-23T07:22:33.491Z,14.93
2018-07-23T07:25:02.566Z,15.27
2018-07-23T07:27:31.551Z,15.83
2018-07-23T07:30:00.408Z,15.20
2018-07-23T07:32:29.415Z,15.87
2018-07-23T07:34:58.537Z,16.00
2018-07-23T07:37:27.495Z,17.20
2018-07-23T07:39:56.691Z,16.87
2018-07-23T07:42:25.650Z,16.47
2018-07-23T07:44:54.738Z,18.27
2018-07-23T07:47:23.694Z,16.93
2018-07-23T07:49:52.608Z,15.13
2018-07-23T07:52:21.581Z,16.47
2018-07-23T07:54:50.529Z,17.23
2018-07-23T07:57:19.467Z,16.63
2018-07-23T07:59:48.484Z,16.63
2018-07-23T08:02:17.452Z,16.83
2018-07-23T08:04:46.450Z,15.37
2018-07-23T08:07:15.409Z,16.00
2018-07-23T08:09:44.370Z,17.23
2018-07-23T08:12:13.413Z,15.47
2018-07-23T08:14:42.369Z,15.60
2018-07-23T08:17:11.398Z,17.23
2018-07-23T08:19:40.517Z,16.00
2018-07-23T08:22:09.483Z,15.20
2018-07-23T08:24:38.470Z,15.67
2018-07-23T08:27:07.471Z,16.00
2018-07-23T08:29:36.530Z,15.47
2018-07-23T08:32:05.508Z,16.57
2018-07-23T08:34:40.885Z,15.57
2018-07-23T08:37:09.964Z,17.27
2018-07-23T08:39:38.993Z,16.87
2018-07-23T08:42:07.890Z,18.47
2018-07-23T08:44:36.814Z,16.83
2018-07-23T08:47:05.815Z,16.70
2018-07-23T08:49:34.867Z,16.47
2018-07-23T08:52:03.853Z,16.33
2018-07-23T08:54:32.840Z,16.50
2018-07-23T08:57:01.763Z,16.80
2018-07-23T08:59:30.790Z,16.90
2018-07-23T09:01:59.751Z,16.03
2018-07-23T09:04:28.801Z,17.20
2018-07-23T09:06:57.306Z,16.20
2018-07-23T09:09:26.238Z,16.97
2018-07-23T09:11:55.235Z,17.20
2018-07-23T09:14:24.211Z,17.27
2018-07-23T09:16:53.100Z,17.17
2018-07-23T09:19:22.143Z,17.63
2018-07-23T09:21:51.132Z,17.80
2018-07-23T09:24:20.070Z,16.93
2018-07-23T09:26:49.131Z,16.90
2018-07-23T09:29:18.092Z,16.07
2018-07-23T09:31:47.037Z,17.23
2018-07-23T09:34:16.074Z,16.57
2018-07-23T09:36:45.060Z,16.43
2018-07-23T09:39:14.090Z,17.30
2018-07-23T09:41:42.624Z,15.83
2018-07-23T09:44:11.794Z,17.40
2018-07-23T09:46:40.845Z,16.60
2018-07-23T09:49:09.885Z,16.53
2018-07-23T09:51:38.893Z,15.77
2018-07-23T09:54:07.863Z,16.67
2018-07-23T09:56:36.850Z,15.70
2018-07-23T09:59:05.882Z,15.93
2018-07-23T10:01:34.873Z,16.47
2018-07-23T10:04:03.809Z,15.33
2018-07-23T10:06:32.241Z,15.97
2018-07-23T10:09:01.250Z,16.13
2018-07-23T10:11:30.302Z,16.63
2018-07-23T10:13:59.349Z,15.13
2018-07-23T10:16:28.322Z,15.60
2018-07-23T10:18:58.542Z,15.07
2018-07-23T10:21:27.565Z,15.13
2018-07-23T10:23:56.518Z,15.97
2018-07-23T10:26:25.699Z,15.67
2018-07-23T10:28:54.669Z,14.13
2018-07-23T10:31:23.802Z,15.83
2018-07-23T10:33:52.818Z,15.47
2018-07-23T10:36:21.755Z,14.80
2018-07-23T10:38:50.380Z,14.90
2018-07-23T10:41:19.431Z,13.97
2018-07-23T10:43:48.415Z,14.10
2018-07-23T10:46:17.391Z,13.87
2018-07-23T10:48:46.378Z,13.50
2018-07-23T10:51:15.283Z,14.63
2018-07-23T10:53:44.309Z,14.20
2018-07-23T10:56:13.399Z,15.00
2018-07-23T10:58:42.583Z,14.23
2018-07-23T11:01:11.556Z,12.03
2018-07-23T11:03:40.476Z,12.90
2018-07-23T11:06:09.576Z,12.73
2018-07-23T11:08:38.590Z,12.10
2018-07-23T11:11:07.627Z,12.30
2018-07-23T11:13:36.654Z,11.77
2018-07-23T11:16:05.710Z,12.27
2018-07-23T11:18:34.731Z,11.33
2018-07-23T11:21:03.729Z,12.67
2018-07-23T11:23:32.691Z,11.93
2018-07-23T11:26:01.690Z,11.27
2018-07-23T11:28:30.852Z,11.73
2018-07-23T11:30:59.950Z,10.43
2018-07-23T11:33:28.931Z,10.60
2018-07-23T11:35:57.927Z,10.33
2018-07-23T11:38:26.992Z,11.13
2018-07-23T11:40:56.079Z,10.23
2018-07-23T11:43:25.114Z,9.20
2018-07-23T11:45:54.100Z,9.83
2018-07-23T11:48:23.139Z,9.60
2018-07-23T11:50:52.274Z,10.67
2018-07-23T11:53:21.273Z,9.50
2018-07-23T11:55:50.477Z,9.60
2018-07-23T11:58:19.050Z,9.57
2018-07-23T12:00:48.011Z,9.70
2018-07-23T12:03:20.133Z,9.37
2018-07-23T12:05:49.205Z,9.43
2018-07-23T12:08:18.155Z,9.20
2018-07-23T12:10:47.143Z,9.33
2018-07-23T12:13:16.180Z,9.27
2018-07-23T12:15:46.095Z,8.80
2018-07-23T12:18:15.292Z,8.90
2018-07-23T12:20:44.272Z,8.97
2018-07-23T12:23:13.191Z,8.67
2018-07-23T12:25:41.729Z,9.23
2018-07-23T12:28:10.774Z,8.93
2018-07-23T12:30:39.215Z,8.27
2018-07-23T12:33:08.289Z,8.47
2018-07-23T12:35:37.391Z,8.43
2018-07-23T12:38:06.249Z,8.40
2018-07-23T12:40:35.253Z,9.20
2018-07-23T12:43:04.337Z,9.13
2018-07-23T12:45:33.331Z,8.27
2018-07-23T12:48:02.340Z,7.87
2018-07-23T12:50:31.294Z,7.70
2018-07-23T12:53:00.160Z,8.43
2018-07-23T12:55:29.171Z,8.07
2018-07-23T12:57:58.137Z,8.97
2018-07-23T13:00:27.152Z,8.37
2018-07-23T13:02:56.240Z,8.67
2018-07-23T13:05:30.335Z,8.37
2018-07-23T13:07:59.978Z,7.83
2018-07-23T13:10:28.951Z,7.93
2018-07-23T13:12:57.928Z,8.57
2018-07-23T13:15:26.932Z,7.40
2018-07-23T13:17:55.951Z,7.87
2018-07-23T13:20:24.934Z,8.20
2018-07-23T13:22:53.929Z,8.00
2018-07-23T13:25:22.959Z,7.90
2018-07-23T13:27:52.188Z,7.90
2018-07-23T13:30:21.153Z,8.07
2018-07-23T13:32:50.395Z,8.13
2018-07-23T13:35:19.373Z,8.10
2018-07-23T13:37:48.737Z,8.47
2018-07-23T13:40:17.364Z,7.73
2018-07-23T13:42:46.440Z,7.83
2018-07-23T13:45:15.423Z,8.50
2018-07-23T13:47:44.473Z,8.07
2018-07-23T13:50:13.411Z,8.67
2018-07-23T13:52:42.386Z,7.57
2018-07-23T13:55:10.985Z,7.70
2018-07-23T13:57:41.019Z,8.47
2018-07-23T14:00:09.978Z,7.93
2018-07-23T14:02:38.934Z,7.30
2018-07-23T14:05:08.050Z,8.17
2018-07-23T14:07:37.073Z,7.93
2018-07-23T14:10:05.545Z,7.70
2018-07-23T14:12:34.642Z,8.33
2018-07-23T14:15:03.564Z,8.60
2018-07-23T14:17:32.555Z,8.37
2018-07-23T14:20:01.661Z,8.47
2018-07-23T14:22:30.750Z,8.20
2018-07-23T14:24:59.671Z,8.77
2018-07-23T14:27:28.650Z,8.80
2018-07-23T14:29:57.553Z,7.77
2018-07-23T14:32:26.574Z,7.60
2018-07-23T14:34:55.514Z,7.80
2018-07-23T14:37:25.752Z,8.23
2018-07-23T14:39:55.272Z,8.33
2018-07-23T14:42:24.298Z,7.78
2018-07-23T14:44:53.358Z,8.00
2018-07-23T14:47:22.390Z,8.10
2018-07-23T14:49:51.430Z,7.50
2018-07-23T14:52:20.334Z,7.95
2018-07-23T14:54:49.312Z,8.20
2018-07-23T14:57:18.332Z,7.35
2018-07-23T14:59:47.925Z,7.85
2018-07-23T15:02:17.069Z,7.50
2018-07-23T15:04:46.051Z,7.55
2018-07-23T15:07:15.091Z,7.13
2018-07-23T15:09:44.057Z,7.83
2018-07-23T15:12:12.553Z,7.78
2018-07-23T15:14:41.048Z,7.33
2018-07-23T15:17:10.114Z,7.28
2018-07-23T15:19:39.093Z,6.90
2018-07-23T15:22:08.320Z,7.25
2018-07-23T15:24:36.830Z,7.00
2018-07-23T15:27:05.828Z,7.17
2018-07-23T15:29:34.859Z,7.10
2018-07-23T15:32:03.857Z,7.92
2018-07-23T15:34:33.006Z,7.22
2018-07-23T15:37:02.014Z,8.13
2018-07-23T15:39:31.279Z,6.80
2018-07-23T15:42:00.194Z,6.58
2018-07-23T15:44:29.364Z,6.70
2018-07-23T15:46:58.057Z,7.03
2018-07-23T15:49:27.063Z,7.35
2018-07-23T15:51:55.597Z,7.37
2018-07-23T15:54:24.617Z,7.80
2018-07-23T15:56:53.541Z,6.87
2018-07-23T15:59:22.680Z,7.30
2018-07-23T16:01:51.791Z,6.97
2018-07-23T16:04:20.833Z,7.93
2018-07-23T16:06:49.794Z,7.07
2018-07-23T16:09:18.771Z,7.07
2018-07-23T16:11:47.747Z,7.00
2018-07-23T16:14:16.795Z,6.53
2018-07-23T16:16:45.731Z,6.87
2018-07-23T16:19:14.772Z,6.93
2018-07-23T16:21:43.302Z,6.97
2018-07-23T16:24:12.577Z,6.90
2018-07-23T16:26:41.572Z,7.10
2018-07-23T16:29:10.652Z,7.70
2018-07-23T16:31:39.628Z,6.80
2018-07-23T16:34:08.754Z,7.40
2018-07-23T16:36:37.887Z,7.20
2018-07-23T16:39:10.351Z,7.27
2018-07-23T16:41:39.334Z,7.37
2018-07-23T16:44:08.735Z,7.77
2018-07-23T16:46:37.934Z,8.17
2018-07-23T16:49:07.005Z,7.73
2018-07-23T16:51:35.541Z,7.57
2018-07-23T16:54:04.499Z,7.67
2018-07-23T16:56:33.491Z,7.20
2018-07-23T16:59:02.710Z,7.37
2018-07-23T17:01:31.696Z,8.50
2018-07-23T17:04:00.903Z,7.40
2018-07-23T17:06:29.851Z,7.90
2018-07-23T17:08:58.448Z,7.90
2018-07-23T17:11:27.471Z,7.90
2018-07-23T17:13:56.654Z,7.87
2018-07-23T17:16:25.651Z,7.67
2018-07-23T17:18:54.671Z,7.57
2018-07-23T17:21:23.651Z,7.63
2018-07-23T17:23:52.609Z,7.73
2018-07-23T17:26:21.153Z,8.20
2018-07-23T17:28:50.190Z,8.43
2018-07-23T17:31:19.231Z,8.20
2018-07-23T17:33:48.333Z,8.27
2018-07-23T17:36:17.374Z,8.83
2018-07-23T17:38:46.253Z,8.30
2018-07-23T17:41:15.320Z,8.47
2018-07-23T17:43:44.319Z,8.70
2018-07-23T17:46:13.425Z,8.17
2018-07-23T17:48:42.532Z,7.97
2018-07-23T17:51:11.516Z,7.83
2018-07-23T17:53:40.453Z,7.73
2018-07-23T17:56:09.451Z,8.70
2018-07-23T17:58:38.471Z,8.77
2018-07-23T18:01:07.532Z,9.70
2018-07-23T18:03:36.728Z,8.00
2018-07-23T18:06:05.750Z,8.03
2018-07-23T18:08:34.652Z,8.57
2018-07-23T18:11:03.642Z,8.53
2018-07-23T18:13:35.393Z,8.90
2018-07-23T18:16:04.389Z,9.43
2018-07-23T18:18:33.431Z,9.10
2018-07-23T18:21:02.453Z,8.63
2018-07-23T18:23:31.795Z,8.63
2018-07-23T18:26:00.790Z,8.70
2018-07-23T18:28:29.797Z,8.83
2018-07-23T18:30:58.803Z,9.23
2018-07-23T18:33:27.255Z,7.77
2018-07-23T18:35:56.335Z,9.07
2018-07-23T18:38:25.426Z,8.07
2018-07-23T18:40:54.391Z,9.13
2018-07-23T18:43:23.343Z,9.43
2018-07-23T18:45:52.265Z,9.50
2018-07-23T18:49:30.535Z,9.10
2018-07-23T18:51:59.593Z,9.77
2018-07-23T18:54:29.796Z,8.53
2018-07-23T18:57:00.012Z,8.90
2018-07-23T18:59:30.071Z,9.40
2018-07-23T19:01:59.685Z,9.50
2018-07-23T19:04:28.721Z,10.60
2018-07-23T19:06:57.751Z,10.03
2018-07-23T19:09:27.431Z,10.37
2018-07-23T19:11:57.390Z,9.53
2018-07-23T19:14:26.356Z,8.83
2018-07-23T19:16:56.234Z,10.77
2018-07-23T19:19:25.294Z,11.27
2018-07-23T19:21:54.428Z,10.37
2018-07-23T19:24:23.491Z,9.53
2018-07-23T19:26:52.513Z,10.63
2018-07-23T19:29:21.545Z,10.17
2018-07-23T19:31:50.084Z,11.27
2018-07-23T19:34:19.057Z,11.80
2018-07-23T19:36:48.250Z,12.83
2018-07-23T19:39:18.731Z,11.50
2018-07-23T19:41:47.232Z,11.83
2018-07-23T19:44:16.247Z,12.33
2018-07-23T19:46:45.307Z,11.83
2018-07-23T19:49:14.371Z,12.10
2018-07-23T19:51:43.428Z,11.67
2018-07-23T19:54:12.752Z,12.77
2018-07-23T19:56:43.173Z,12.03
2018-07-23T19:59:12.174Z,12.47
2018-07-23T20:01:41.214Z,12.70
2018-07-23T20:04:09.748Z,12.70
2018-07-23T20:06:38.930Z,14.03
2018-07-23T20:09:10.007Z,13.00
2018-07-23T20:11:39.052Z,13.50
2018-07-23T20:14:08.122Z,13.37
2018-07-23T20:16:37.032Z,12.77
2018-07-23T20:19:05.654Z,12.60
2018-07-23T20:21:34.928Z,12.77
2018-07-23T20:24:03.951Z,12.90
2018-07-23T20:26:32.955Z,13.80
2018-07-23T20:29:02.092Z,12.70
2018-07-23T20:31:30.640Z,11.13
2018-07-23T20:33:59.761Z,14.00
2018-07-23T20:36:28.868Z,12.50
2018-07-23T20:38:57.878Z,12.80
2018-07-23T20:41:26.915Z,13.53
2018-07-23T20:43:55.894Z,12.93
2018-07-23T20:46:24.933Z,12.87
2018-07-23T20:48:53.910Z,12.73
2018-07-23T20:51:22.994Z,13.40
2018-07-23T20:53:52.027Z,14.13
2018-07-23T20:56:21.060Z,13.93
2018-07-23T20:58:50.200Z,14.57
2018-07-23T21:01:19.233Z,14.03
2018-07-23T21:03:48.198Z,13.40
2018-07-23T21:06:17.213Z,13.70
2018-07-23T21:08:46.171Z,13.93
2018-07-23T21:11:15.253Z,14.13
2018-07-23T21:13:44.330Z,14.77
2018-07-23T21:16:13.216Z,13.77
2018-07-23T21:18:42.231Z,14.60
2018-07-23T21:21:11.594Z,14.23
2018-07-23T21:23:40.637Z,14.57
2018-07-23T21:26:09.718Z,14.80
2018-07-23T21:28:38.663Z,15.60
2018-07-23T21:31:07.970Z,14.20
2018-07-23T21:33:37.040Z,15.07
2018-07-23T21:36:05.538Z,14.53
2018-07-23T21:38:34.086Z,14.73
2018-07-23T21:41:03.075Z,15.43
2018-07-23T21:43:32.959Z,14.67
2018-07-23T21:46:01.964Z,15.97
2018-07-23T21:48:31.141Z,15.63
2018-07-23T21:51:00.136Z,15.87
2018-07-23T21:53:29.174Z,14.37
2018-07-23T21:55:58.171Z,15.63
2018-07-23T21:58:27.230Z,16.67
2018-07-23T22:00:56.217Z,15.30
2018-07-23T22:03:25.243Z,15.63
2018-07-23T22:05:54.205Z,16.00
2018-07-23T22:08:23.235Z,15.57
2018-07-23T22:10:52.257Z,14.63
2018-07-23T22:13:21.007Z,15.90
2018-07-23T22:15:49.968Z,15.73
2018-07-23T22:18:18.954Z,15.97
2018-07-23T22:20:48.017Z,16.20
2018-07-23T22:23:16.529Z,16.03
2018-07-23T22:25:45.488Z,16.63
2018-07-23T22:28:14.494Z,16.77
2018-07-23T22:30:42.963Z,16.17
2018-07-23T22:33:11.544Z,15.70
2018-07-23T22:35:41.583Z,16.17
2018-07-23T22:38:10.551Z,16.70
2018-07-23T22:40:39.598Z,16.90
2018-07-23T22:43:08.679Z,16.97
2018-07-23T22:45:37.670Z,16.20
2018-07-23T22:48:06.613Z,15.83
2018-07-23T22:50:35.629Z,16.80
2018-07-23T22:53:04.186Z,17.37
2018-07-23T22:55:33.162Z,16.03
2018-07-23T22:58:02.174Z,15.77
2018-07-23T23:00:31.332Z,15.97
2018-07-23T23:03:00.317Z,16.40
2018-07-23T23:05:29.350Z,16.63
2018-07-23T23:07:58.423Z,16.77
2018-07-23T23:10:27.399Z,16.20
2018-07-23T23:12:56.426Z,16.93
2018-07-23T23:15:25.309Z,17.03
2018-07-23T23:17:54.290Z,16.87
2018-07-23T23:20:23.247Z,16.47
2018-07-23T23:22:51.799Z,16.80
2018-07-23T23:25:20.789Z,17.43
2018-07-23T23:27:49.694Z,16.83
2018-07-23T23:30:18.734Z,17.83
2018-07-23T23:32:47.751Z,18.17
2018-07-23T23:35:16.692Z,16.23
2018-07-23T23:37:45.222Z,17.33
2018-07-23T23:40:14.645Z,17.50
2018-07-23T23:42:43.713Z,16.80
2018-07-23T23:45:12.812Z,17.00
2018-07-23T23:47:41.871Z,17.87
2018-07-23T23:50:10.763Z,18.13
2018-07-23T23:52:39.756Z,18.37
2018-07-23T23:55:08.201Z,17.30
2018-07-23T23:57:37.229Z,16.50
